createdAt,value
2023-05-09T00:02:03.637Z,101694.46
2023-05-09T00:04:32.987Z,101693.23
2023-05-09T00:07:01.733Z,101694.41
2023-05-09T00:09:29.904Z,101694.05
2023-05-09T00:11:58.290Z,101693.83
2023-05-09T00:14:27.578Z,101695.01
2023-05-09T00:16:57.516Z,101692.55
2023-05-09T00:19:25.972Z,101687.34
2023-05-09T00:21:54.448Z,101690.92
2023-05-09T00:24:22.626Z,101685.21
2023-05-09T00:26:51.005Z,101683.61
2023-05-09T00:29:19.376Z,101683.61
2023-05-09T00:31:47.578Z,101683.40
2023-05-09T00:34:15.948Z,101680.61
2023-05-09T00:36:44.303Z,101678.16
2023-05-09T00:39:13.397Z,101677.94
2023-05-09T00:41:41.470Z,101675.48
2023-05-09T00:44:09.846Z,101674.08
2023-05-09T00:46:39.947Z,101672.16
2023-05-09T00:49:08.441Z,101668.14
2023-05-09T00:51:37.676Z,101667.58
2023-05-09T00:54:08.481Z,101663.75
2023-05-09T00:56:37.564Z,101662.52
2023-05-09T00:59:06.658Z,101664.20
2023-05-09T01:01:34.772Z,101658.50
2023-05-09T01:04:03.416Z,101656.73
2023-05-09T01:07:06.406Z,101654.11
2023-05-09T01:09:40.417Z,101654.61
2023-05-09T01:12:24.253Z,101653.73
2023-05-09T01:15:12.169Z,101656.98
2023-05-09T01:18:00.318Z,101655.58
2023-05-09T01:20:58.718Z,101658.47
2023-05-09T01:24:08.660Z,101658.94
2023-05-09T01:26:56.085Z,101655.11
2023-05-09T01:29:37.366Z,101654.74
2023-05-09T01:32:10.948Z,101650.22
2023-05-09T01:34:40.875Z,101649.35
2023-05-09T01:37:10.077Z,101649.33
2023-05-09T01:39:40.309Z,101651.73
2023-05-09T01:42:10.206Z,101652.05
2023-05-09T01:44:40.532Z,101661.21
2023-05-09T01:47:09.936Z,101658.42
2023-05-09T01:49:39.332Z,101660.66
2023-05-09T01:52:10.463Z,101659.26
2023-05-09T01:54:40.795Z,101653.02
2023-05-09T01:57:10.204Z,101652.14
2023-05-09T01:59:43.103Z,101645.02
2023-05-09T02:02:11.877Z,101643.94
2023-05-09T02:04:42.373Z,101642.04
2023-05-09T02:07:11.487Z,101641.86
2023-05-09T02:09:39.770Z,101639.10
2023-05-09T02:12:08.251Z,101639.77
2023-05-09T02:14:36.417Z,101638.89
2023-05-09T02:17:07.154Z,101638.68
2023-05-09T02:19:36.270Z,101639.83
2023-05-09T02:22:05.323Z,101637.04
2023-05-09T02:24:36.693Z,101636.98
2023-05-09T02:27:05.574Z,101632.33
2023-05-09T02:29:40.864Z,101630.23
2023-05-09T02:32:12.108Z,101626.23
2023-05-09T02:34:41.246Z,101625.17
2023-05-09T02:37:10.764Z,101624.10
2023-05-09T02:39:39.130Z,101622.86
2023-05-09T02:42:09.796Z,101620.45
2023-05-09T02:44:39.113Z,101619.20
2023-05-09T02:47:07.856Z,101614.52
2023-05-09T02:49:37.550Z,101620.21
2023-05-09T02:52:06.232Z,101617.07
2023-05-09T02:54:34.405Z,101613.61
2023-05-09T02:57:02.782Z,101615.13
2023-05-09T02:59:31.162Z,101615.60
2023-05-09T03:02:02.710Z,101615.39
2023-05-09T03:04:31.395Z,101618.63
2023-05-09T03:06:59.875Z,101620.30
2023-05-09T03:09:32.046Z,101620.42
2023-05-09T03:12:00.418Z,101618.68
2023-05-09T03:14:28.502Z,101617.98
2023-05-09T03:16:56.761Z,101612.80
2023-05-09T03:19:33.024Z,101616.39
2023-05-09T03:22:01.511Z,101607.92
2023-05-09T03:24:31.314Z,101608.61
2023-05-09T03:26:59.496Z,101605.48
2023-05-09T03:29:28.380Z,101602.37
2023-05-09T03:31:56.598Z,101599.73
2023-05-09T03:34:24.824Z,101597.33
2023-05-09T03:36:53.306Z,101597.31
2023-05-09T03:39:22.192Z,101599.55
2023-05-09T03:41:51.594Z,101603.02
2023-05-09T03:44:19.870Z,101604.94
2023-05-09T03:46:48.092Z,101602.73
2023-05-09T03:49:16.728Z,101609.65
2023-05-09T03:51:48.072Z,101608.81
2023-05-09T03:54:17.071Z,101611.61
2023-05-09T03:56:45.440Z,101611.65
2023-05-09T03:59:13.716Z,101611.73
2023-05-09T04:01:42.718Z,101612.11
2023-05-09T04:04:11.199Z,101610.14
2023-05-09T04:06:39.566Z,101607.49
2023-05-09T04:09:09.580Z,101608.77
2023-05-09T04:11:37.956Z,101606.27
2023-05-09T04:14:08.378Z,101605.86
2023-05-09T04:16:37.316Z,101605.09
2023-05-09T04:19:07.317Z,101600.90
2023-05-09T04:21:36.893Z,101603.05
2023-05-09T04:24:06.496Z,101605.23
2023-05-09T04:26:39.484Z,101606.09
2023-05-09T04:29:10.218Z,101604.52
2023-05-09T04:31:38.617Z,101598.98
2023-05-09T04:34:08.203Z,101598.40
2023-05-09T04:36:37.294Z,101596.60
2023-05-09T04:39:05.875Z,101593.43
2023-05-09T04:41:34.786Z,101589.23
2023-05-09T04:44:03.567Z,101587.97
2023-05-09T04:46:31.776Z,101587.59
2023-05-09T04:49:00.005Z,101585.29
2023-05-09T04:51:28.378Z,101584.04
2023-05-09T04:53:56.654Z,101579.66
2023-05-09T04:56:28.714Z,101587.71
2023-05-09T04:58:57.049Z,101590.20
2023-05-09T05:01:26.428Z,101589.76
2023-05-09T05:03:56.210Z,101587.91
2023-05-09T05:06:24.374Z,101590.57
2023-05-09T05:08:52.649Z,101591.83
2023-05-09T05:11:21.841Z,101587.50
2023-05-09T05:13:50.327Z,101585.83
2023-05-09T05:16:18.585Z,101579.59
2023-05-09T05:18:47.490Z,101579.07
2023-05-09T05:21:16.618Z,101581.32
2023-05-09T05:23:45.407Z,101578.16
2023-05-09T05:26:14.261Z,101576.23
2023-05-09T05:28:42.538Z,101571.52
2023-05-09T05:31:11.129Z,101573.36
2023-05-09T05:33:39.493Z,101567.93
2023-05-09T05:36:08.178Z,101564.21
2023-05-09T05:38:36.556Z,101564.52
2023-05-09T05:41:05.338Z,101563.41
2023-05-09T05:43:34.629Z,101560.37
2023-05-09T05:46:03.231Z,101560.66
2023-05-09T05:48:31.795Z,101563.70
2023-05-09T05:51:00.410Z,101562.21
2023-05-09T05:53:32.621Z,101562.61
2023-05-09T05:56:01.743Z,101561.11
2023-05-09T05:58:30.672Z,101558.74
2023-05-09T06:00:58.805Z,101558.10
2023-05-09T06:03:27.570Z,101555.17
2023-05-09T06:05:59.669Z,101550.16
2023-05-09T06:08:28.035Z,101549.48
2023-05-09T06:10:56.506Z,101546.36
2023-05-09T06:13:24.760Z,101542.24
2023-05-09T06:16:01.895Z,101536.55
2023-05-09T06:18:38.023Z,101542.87
2023-05-09T06:21:07.014Z,101539.46
2023-05-09T06:23:38.063Z,101544.75
2023-05-09T06:26:08.683Z,101544.80
2023-05-09T06:28:37.690Z,101539.83
2023-05-09T06:31:06.076Z,101542.31
2023-05-09T06:33:34.226Z,101538.38
2023-05-09T06:36:02.404Z,101537.53
2023-05-09T06:38:30.679Z,101531.95
2023-05-09T06:40:58.742Z,101531.95
2023-05-09T06:43:27.633Z,101528.27
2023-05-09T06:45:55.769Z,101528.46
2023-05-09T06:48:24.280Z,101521.10
2023-05-09T06:50:52.667Z,101520.52
2023-05-09T06:53:20.841Z,101526.61
2023-05-09T06:55:49.120Z,101516.65
2023-05-09T06:58:17.385Z,101517.81
2023-05-09T07:00:45.654Z,101514.36
2023-05-09T07:03:14.037Z,101517.02
2023-05-09T07:05:42.194Z,101513.93
2023-05-09T07:08:10.690Z,101514.25
2023-05-09T07:10:39.067Z,101515.30
2023-05-09T07:13:07.504Z,101510.27
2023-05-09T07:15:41.854Z,101511.48
2023-05-09T07:18:11.205Z,101506.77
2023-05-09T07:20:39.333Z,101506.74
2023-05-09T07:23:07.403Z,101508.31
2023-05-09T07:25:35.687Z,101505.05
2023-05-09T07:28:03.959Z,101500.05
2023-05-09T07:30:32.024Z,101488.59
2023-05-09T07:33:01.746Z,101489.14
2023-05-09T07:35:30.313Z,101488.80
2023-05-09T07:37:58.587Z,101489.64
2023-05-09T07:40:26.659Z,101484.08
2023-05-09T07:42:56.955Z,101485.27
2023-05-09T07:45:25.051Z,101485.09
2023-05-09T07:47:53.233Z,101476.45
2023-05-09T07:50:23.334Z,101468.86
2023-05-09T07:52:52.939Z,101465.56
2023-05-09T07:55:21.315Z,101466.08
2023-05-09T07:57:49.618Z,101468.41
2023-05-09T08:00:23.512Z,101460.16
2023-05-09T08:02:52.366Z,101456.14
2023-05-09T08:05:20.791Z,101456.17
2023-05-09T08:07:49.241Z,101449.45
2023-05-09T08:10:17.731Z,101450.25
2023-05-09T08:12:45.939Z,101446.03
2023-05-09T08:15:14.264Z,101441.58
2023-05-09T08:17:42.809Z,101441.10
2023-05-09T08:20:12.158Z,101439.56
2023-05-09T08:22:41.059Z,101442.14
2023-05-09T08:25:09.640Z,101430.95
2023-05-09T08:27:37.805Z,101425.65
2023-05-09T08:30:07.112Z,101423.58
2023-05-09T08:32:35.397Z,101424.66
2023-05-09T08:35:03.995Z,101419.33
2023-05-09T08:37:32.140Z,101413.06
2023-05-09T08:40:00.517Z,101398.92
2023-05-09T08:42:30.023Z,101389.59
2023-05-09T08:44:59.312Z,101388.67
2023-05-09T08:47:28.939Z,101386.23
2023-05-09T08:49:57.191Z,101389.48
2023-05-09T08:52:25.474Z,101388.77
2023-05-09T08:54:53.843Z,101386.42
2023-05-09T08:57:22.116Z,101380.83
2023-05-09T08:59:51.724Z,101378.88
2023-05-09T09:02:20.110Z,101369.48
2023-05-09T09:04:48.652Z,101373.81
2023-05-09T09:07:18.289Z,101368.08
2023-05-09T09:09:47.903Z,101366.96
2023-05-09T09:12:17.094Z,101359.91
2023-05-09T09:14:50.687Z,101357.88
2023-05-09T09:17:21.413Z,101354.86
2023-05-09T09:19:51.112Z,101365.93
2023-05-09T09:22:20.035Z,101363.38
2023-05-09T09:24:48.192Z,101362.64
2023-05-09T09:27:16.978Z,101360.76
2023-05-09T09:29:45.043Z,101355.36
2023-05-09T09:32:13.327Z,101359.59
2023-05-09T09:34:41.604Z,101355.96
2023-05-09T09:37:09.768Z,101351.91
2023-05-09T09:39:37.941Z,101342.15
2023-05-09T09:42:13.599Z,101341.41
2023-05-09T09:44:42.273Z,101339.36
2023-05-09T09:47:11.363Z,101338.56
2023-05-09T09:49:46.166Z,101339.40
2023-05-09T09:52:23.192Z,101345.91
2023-05-09T09:54:51.365Z,101341.38
2023-05-09T09:57:39.987Z,101338.20
2023-05-09T10:00:08.970Z,101328.23
2023-05-09T10:02:48.434Z,101327.98
2023-05-09T10:05:27.348Z,101323.23
2023-05-09T10:07:58.060Z,101323.06
2023-05-09T10:10:31.678Z,101315.18
2023-05-09T10:13:12.280Z,101315.15
2023-05-09T10:15:53.017Z,101315.44
2023-05-09T10:18:26.909Z,101308.48
2023-05-09T10:20:57.248Z,101312.02
2023-05-09T10:23:25.926Z,101307.13
2023-05-09T10:26:18.976Z,101295.92
2023-05-09T10:28:49.656Z,101295.59
2023-05-09T10:31:28.653Z,101290.98
2023-05-09T10:33:57.526Z,101283.11
2023-05-09T10:36:25.694Z,101283.89
2023-05-09T10:38:55.225Z,101284.30
2023-05-09T10:41:24.229Z,101280.05
2023-05-09T10:43:53.078Z,101275.06
2023-05-09T10:46:23.527Z,101265.08
2023-05-09T10:48:52.701Z,101270.19
2023-05-09T10:51:21.897Z,101260.97
2023-05-09T10:53:51.290Z,101249.55
2023-05-09T10:56:33.298Z,101264.13
2023-05-09T10:59:02.387Z,101256.88
2023-05-09T11:01:37.505Z,101250.30
2023-05-09T11:04:14.630Z,101255.02
2023-05-09T11:06:51.360Z,101245.95
2023-05-09T11:09:38.890Z,101244.65
2023-05-09T11:12:15.168Z,101236.64
2023-05-09T11:14:45.045Z,101229.58
2023-05-09T11:17:13.287Z,101226.20
2023-05-09T11:19:47.690Z,101226.38
2023-05-09T11:22:29.461Z,101220.41
2023-05-09T11:25:06.020Z,101204.64
2023-05-09T11:27:48.849Z,101202.99
2023-05-09T11:30:19.284Z,101208.38
2023-05-09T11:32:55.366Z,101209.59
2023-05-09T11:35:24.225Z,101203.53
2023-05-09T11:37:55.380Z,101201.87
2023-05-09T11:40:23.948Z,101193.42
2023-05-09T11:42:57.051Z,101182.10
2023-05-09T11:45:28.773Z,101180.08
2023-05-09T11:48:01.445Z,101181.77
2023-05-09T11:50:30.046Z,101170.95
2023-05-09T11:52:58.731Z,101167.87
2023-05-09T11:55:30.367Z,101165.13
2023-05-09T11:57:58.963Z,101169.48
2023-05-09T12:00:27.370Z,101162.45
2023-05-09T12:02:55.942Z,101153.27
2023-05-09T12:05:24.216Z,101151.46
2023-05-09T12:07:52.995Z,101151.78
2023-05-09T12:10:23.309Z,101141.70
2023-05-09T12:12:53.386Z,101129.55
2023-05-09T12:15:22.397Z,101126.92
2023-05-09T12:18:05.083Z,101128.86
2023-05-09T12:20:52.755Z,101138.60
2023-05-09T12:23:20.940Z,101131.70
2023-05-09T12:25:53.516Z,101126.75
2023-05-09T12:28:25.573Z,101129.13
2023-05-09T12:30:54.564Z,101120.92
2023-05-09T12:33:23.047Z,101119.04
2023-05-09T12:36:12.416Z,101113.16
2023-05-09T12:38:40.579Z,101111.77
2023-05-09T12:41:22.524Z,101114.63
2023-05-09T12:43:59.059Z,101108.13
2023-05-09T12:46:27.298Z,101104.42
2023-05-09T12:48:55.791Z,101094.95
2023-05-09T12:51:24.306Z,101091.08
2023-05-09T12:53:52.675Z,101082.23
2023-05-09T12:56:23.716Z,101074.35
2023-05-09T12:58:56.058Z,101072.45
2023-05-09T13:01:28.489Z,101066.14
2023-05-09T13:04:05.007Z,101058.39
2023-05-09T13:06:34.575Z,101054.23
2023-05-09T13:09:06.039Z,101057.55
2023-05-09T13:11:34.445Z,101051.90
2023-05-09T13:14:04.308Z,101048.57
2023-05-09T13:16:32.675Z,101041.38
2023-05-09T13:19:01.930Z,101037.71
2023-05-09T13:21:30.091Z,101038.08
2023-05-09T13:23:58.266Z,101032.31
2023-05-09T13:26:27.579Z,101028.37
2023-05-09T13:28:56.467Z,101026.13
2023-05-09T13:31:24.799Z,101023.44
2023-05-09T13:33:53.106Z,101023.16
2023-05-09T13:36:21.817Z,101020.33
2023-05-09T13:38:49.961Z,101014.40
2023-05-09T13:41:22.030Z,101009.02
2023-05-09T13:43:50.199Z,100995.94
2023-05-09T13:46:18.539Z,100983.80
2023-05-09T13:48:47.977Z,100976.75
2023-05-09T13:51:16.352Z,100977.58
2023-05-09T13:53:44.624Z,100981.05
2023-05-09T13:56:12.918Z,100979.35
2023-05-09T13:58:41.076Z,100968.74
2023-05-09T14:01:09.520Z,100967.64
2023-05-09T14:03:37.887Z,100953.91
2023-05-09T14:06:06.308Z,100952.26
2023-05-09T14:08:34.898Z,100950.02
2023-05-09T14:11:03.166Z,100950.80
2023-05-09T14:13:32.333Z,100945.20
2023-05-09T14:16:00.567Z,100938.02
2023-05-09T14:18:29.015Z,100930.27
2023-05-09T14:20:57.493Z,100926.29
2023-05-09T14:23:25.672Z,100918.87
2023-05-09T14:25:54.056Z,100920.07
2023-05-09T14:28:22.624Z,100924.30
2023-05-09T14:30:50.796Z,100923.84
2023-05-09T14:33:19.487Z,100913.46
2023-05-09T14:35:47.964Z,100907.64
2023-05-09T14:38:16.136Z,100906.77
2023-05-09T14:40:44.409Z,100901.73
2023-05-09T14:43:12.884Z,100903.37
2023-05-09T14:45:41.044Z,100900.55
2023-05-09T14:48:09.290Z,100905.36
2023-05-09T14:50:37.625Z,100906.95
2023-05-09T14:53:06.192Z,100899.48
2023-05-09T14:55:34.360Z,100902.04
2023-05-09T14:58:03.053Z,100895.32
2023-05-09T15:00:31.229Z,100893.03
2023-05-09T15:02:59.462Z,100883.97
2023-05-09T15:05:27.980Z,100885.16
2023-05-09T15:07:56.359Z,100881.72
2023-05-09T15:10:24.730Z,100880.63
2023-05-09T15:12:53.029Z,100879.19
2023-05-09T15:15:23.722Z,100877.77
2023-05-09T15:17:54.372Z,100870.06
2023-05-09T15:20:22.550Z,100870.48
2023-05-09T15:22:51.061Z,100859.52
2023-05-09T15:25:19.979Z,100856.77
2023-05-09T15:27:50.551Z,100860.14
2023-05-09T15:30:19.218Z,100855.52
2023-05-09T15:32:47.631Z,100858.11
2023-05-09T15:35:16.187Z,100852.30
2023-05-09T15:37:47.729Z,100851.82
2023-05-09T15:40:16.427Z,100844.50
2023-05-09T15:42:44.819Z,100848.02
2023-05-09T15:45:12.988Z,100851.23
2023-05-09T15:47:41.189Z,100848.56
2023-05-09T15:50:10.127Z,100845.58
2023-05-09T15:52:38.431Z,100833.36
2023-05-09T15:55:07.628Z,100824.67
2023-05-09T15:57:35.775Z,100820.52
2023-05-09T16:00:05.674Z,100827.11
2023-05-09T16:02:42.365Z,100829.05
2023-05-09T16:05:11.410Z,100824.54
2023-05-09T16:07:42.388Z,100820.66
2023-05-09T16:10:10.969Z,100815.20
2023-05-09T16:12:40.065Z,100811.20
2023-05-09T16:15:08.956Z,100808.87
2023-05-09T16:17:37.197Z,100806.25
2023-05-09T16:20:06.128Z,100801.05
2023-05-09T16:22:34.289Z,100793.00
2023-05-09T16:25:02.472Z,100792.27
2023-05-09T16:27:30.662Z,100791.91
2023-05-09T16:29:58.804Z,100791.97
2023-05-09T16:32:27.298Z,100787.63
2023-05-09T16:34:56.279Z,100776.17
2023-05-09T16:37:24.656Z,100778.61
2023-05-09T16:39:52.726Z,100785.09
2023-05-09T16:42:20.996Z,100782.63
2023-05-09T16:44:49.707Z,100779.72
2023-05-09T16:47:18.120Z,100783.82
2023-05-09T16:49:46.644Z,100776.95
2023-05-09T16:52:15.647Z,100775.95
2023-05-09T16:54:43.814Z,100776.41
2023-05-09T16:57:12.088Z,100773.48
2023-05-09T16:59:40.763Z,100772.82
2023-05-09T17:02:08.943Z,100774.27
2023-05-09T17:04:37.887Z,100770.28
2023-05-09T17:07:06.716Z,100768.57
2023-05-09T17:09:35.301Z,100769.30
2023-05-09T17:12:03.776Z,100766.25
2023-05-09T17:14:31.946Z,100763.91
2023-05-09T17:17:00.271Z,100759.70
2023-05-09T17:19:28.599Z,100758.35
2023-05-09T17:21:59.019Z,100756.81
2023-05-09T17:24:27.404Z,100754.55
2023-05-09T17:26:56.803Z,100749.55
2023-05-09T17:29:29.496Z,100747.18
2023-05-09T17:32:01.752Z,100747.98
2023-05-09T17:34:30.252Z,100745.48
2023-05-09T17:36:58.810Z,100748.70
2023-05-09T17:39:27.291Z,100751.94
2023-05-09T17:41:55.464Z,100750.43
2023-05-09T17:44:24.254Z,100749.53
2023-05-09T17:46:52.422Z,100748.36
2023-05-09T17:49:20.604Z,100747.35
2023-05-09T17:51:49.690Z,100749.34
2023-05-09T17:54:19.195Z,100752.20
2023-05-09T17:56:51.260Z,100756.27
2023-05-09T17:59:19.328Z,100752.09
2023-05-09T18:01:47.925Z,100749.30
2023-05-09T18:04:16.077Z,100747.70
2023-05-09T18:06:44.258Z,100747.61
2023-05-09T18:09:12.523Z,100749.21
2023-05-09T18:11:40.696Z,100747.20
2023-05-09T18:14:08.972Z,100749.09
2023-05-09T18:16:37.189Z,100752.34
2023-05-09T18:19:05.947Z,100748.98
2023-05-09T18:21:34.317Z,100749.20
2023-05-09T18:24:02.785Z,100753.69
2023-05-09T18:26:31.085Z,100752.58
2023-05-09T18:28:59.438Z,100754.82
2023-05-09T18:31:28.081Z,100751.26
2023-05-09T18:33:56.607Z,100751.71
2023-05-09T18:36:24.784Z,100751.59
2023-05-09T18:38:53.460Z,100756.52
2023-05-09T18:41:22.245Z,100755.50
2023-05-09T18:43:50.726Z,100762.08
2023-05-09T18:46:21.402Z,100765.92
2023-05-09T18:48:52.599Z,100766.77
2023-05-09T18:51:21.079Z,100770.08
2023-05-09T18:53:49.545Z,100769.64
2023-05-09T18:56:19.256Z,100770.92
2023-05-09T18:58:49.078Z,100770.77
2023-05-09T19:01:18.390Z,100770.14
2023-05-09T19:03:47.794Z,100768.66
2023-05-09T19:06:16.648Z,100768.73
2023-05-09T19:08:46.989Z,100770.84
2023-05-09T19:11:15.363Z,100771.23
2023-05-09T19:13:48.790Z,100770.36
2023-05-09T19:16:19.888Z,100770.04
2023-05-09T19:18:48.896Z,100769.04
2023-05-09T19:21:19.012Z,100766.21
2023-05-09T19:23:49.357Z,100769.87
2023-05-09T19:26:17.916Z,100768.23
2023-05-09T19:28:47.186Z,100762.77
2023-05-09T19:31:16.011Z,100756.95
2023-05-09T19:33:50.710Z,100757.42
2023-05-09T19:36:18.910Z,100754.11
2023-05-09T19:38:47.076Z,100753.23
2023-05-09T19:41:15.355Z,100753.91
2023-05-09T19:43:43.530Z,100752.17
2023-05-09T19:46:11.708Z,100750.05
2023-05-09T19:48:40.081Z,100747.75
2023-05-09T19:51:12.359Z,100748.07
2023-05-09T19:53:41.211Z,100747.49
2023-05-09T19:56:09.823Z,100745.73
2023-05-09T19:58:38.095Z,100745.66
2023-05-09T20:01:07.228Z,100749.34
2023-05-09T20:03:37.100Z,100751.09
2023-05-09T20:06:06.089Z,100751.61
2023-05-09T20:08:34.359Z,100746.33
2023-05-09T20:11:03.450Z,100746.80
2023-05-09T20:13:31.627Z,100742.20
2023-05-09T20:16:00.468Z,100740.84
2023-05-09T20:18:28.890Z,100737.89
2023-05-09T20:20:57.162Z,100734.77
2023-05-09T20:23:25.335Z,100741.59
2023-05-09T20:25:53.814Z,100738.16
2023-05-09T20:28:22.806Z,100734.23
2023-05-09T20:30:50.987Z,100734.06
2023-05-09T20:33:19.360Z,100735.30
2023-05-09T20:35:49.376Z,100730.23
2023-05-09T20:38:17.644Z,100729.02
2023-05-09T20:40:45.820Z,100730.42
2023-05-09T20:43:14.078Z,100728.34
2023-05-09T20:45:43.232Z,100727.84
2023-05-09T20:48:11.570Z,100727.69
2023-05-09T20:50:39.739Z,100730.36
2023-05-09T20:53:08.012Z,100728.95
2023-05-09T20:55:36.289Z,100725.38
2023-05-09T20:58:04.456Z,100725.73
2023-05-09T21:00:33.126Z,100721.03
2023-05-09T21:03:01.804Z,100717.39
2023-05-09T21:05:30.206Z,100717.88
2023-05-09T21:07:58.379Z,100712.98
2023-05-09T21:10:26.867Z,100710.67
2023-05-09T21:12:54.958Z,100709.45
2023-05-09T21:15:23.203Z,100706.84
2023-05-09T21:17:51.404Z,100707.69
2023-05-09T21:20:19.657Z,100703.29
2023-05-09T21:22:47.821Z,100705.21
2023-05-09T21:25:17.525Z,100702.10
2023-05-09T21:27:46.423Z,100697.35
2023-05-09T21:30:14.908Z,100695.92
2023-05-09T21:32:43.322Z,100696.75
2023-05-09T21:35:13.391Z,100696.71
2023-05-09T21:37:41.666Z,100695.80
2023-05-09T21:40:10.553Z,100695.43
2023-05-09T21:42:40.867Z,100695.16
2023-05-09T21:45:09.259Z,100694.10
2023-05-09T21:47:39.898Z,100693.73
2023-05-09T21:50:08.868Z,100688.64
2023-05-09T21:52:37.045Z,100691.70
2023-05-09T21:55:05.826Z,100693.55
2023-05-09T21:57:34.315Z,100691.90
2023-05-09T22:00:05.222Z,100687.96
2023-05-09T22:02:43.207Z,100686.85
2023-05-09T22:05:12.344Z,100687.14
2023-05-09T22:07:40.517Z,100685.67
2023-05-09T22:10:09.299Z,100686.44
2023-05-09T22:12:37.887Z,100686.71
2023-05-09T22:15:07.279Z,100684.89
2023-05-09T22:17:35.900Z,100682.92
2023-05-09T22:20:04.656Z,100679.02
2023-05-09T22:22:33.556Z,100671.91
2023-05-09T22:25:02.857Z,100671.30
2023-05-09T22:27:31.356Z,100668.79
2023-05-09T22:29:59.594Z,100665.19
2023-05-09T22:32:28.318Z,100660.09
2023-05-09T22:34:57.173Z,100660.72
2023-05-09T22:37:25.346Z,100660.09
2023-05-09T22:39:53.420Z,100659.48
2023-05-09T22:42:21.693Z,100663.77
2023-05-09T22:44:49.958Z,100662.61
2023-05-09T22:47:18.337Z,100657.06
2023-05-09T22:49:46.587Z,100658.84
2023-05-09T22:52:14.788Z,100657.73
2023-05-09T22:54:42.956Z,100652.59
2023-05-09T22:57:11.757Z,100651.80
2023-05-09T22:59:39.915Z,100651.50
2023-05-09T23:02:08.217Z,100649.82
2023-05-09T23:04:36.465Z,100648.48
2023-05-09T23:07:04.738Z,100645.20
2023-05-09T23:09:32.919Z,100645.45
2023-05-09T23:12:01.496Z,100644.10
2023-05-09T23:14:29.875Z,100638.59
2023-05-09T23:16:58.062Z,100637.39
2023-05-09T23:19:26.325Z,100635.61
2023-05-09T23:21:54.597Z,100634.40
2023-05-09T23:24:22.767Z,100632.86
2023-05-09T23:26:50.942Z,100634.58
2023-05-09T23:29:19.216Z,100633.16
2023-05-09T23:31:47.633Z,100629.81
2023-05-09T23:34:16.493Z,100629.25
2023-05-09T23:36:44.652Z,100625.97
2023-05-09T23:39:12.927Z,100627.35
2023-05-09T23:41:41.199Z,100622.48
2023-05-09T23:44:09.372Z,100619.35
2023-05-09T23:46:37.593Z,100618.85
2023-05-09T23:49:06.029Z,100615.05
2023-05-09T23:51:34.200Z,100612.83
2023-05-09T23:54:02.509Z,100608.11
2023-05-09T23:56:31.465Z,100608.71
2023-05-09T23:58:59.630Z,100608.77
